sensor_id;sensor_type;location;lat;lon;timestamp;P1;durP1;ratioP1;P2;durP2;ratioP2
72639;SDS011;60683;51.730;8.762;2023-10-09T00:02:15;14.88;;;4.82;;
72639;SDS011;60683;51.730;8.762;2023-10-09T00:04:42;13.23;;;5.78;;
72639;SDS011;60683;51.730;8.762;2023-10-09T00:07:10;13.18;;;4.80;;
72639;SDS011;60683;51.730;8.762;2023-10-09T00:09:38;13.30;;;4.20;;
72639;SDS011;60683;51.730;8.762;2023-10-09T00:12:15;12.02;;;4.75;;
72639;SDS011;60683;51.730;8.762;2023-10-09T00:14:47;15.25;;;5.32;;
72639;SDS011;60683;51.730;8.762;2023-10-09T00:17:17;15.00;;;5.70;;
72639;SDS011;60683;51.730;8.762;2023-10-09T00:19:45;16.52;;;4.75;;
72639;SDS011;60683;51.730;8.762;2023-10-09T00:22:13;12.85;;;5.43;;
72639;SDS011;60683;51.730;8.762;2023-10-09T00:24:52;12.68;;;5.05;;
72639;SDS011;60683;51.730;8.762;2023-10-09T00:27:36;14.93;;;4.75;;
72639;SDS011;60683;51.730;8.762;2023-10-09T00:30:07;13.95;;;4.85;;
72639;SDS011;60683;51.730;8.762;2023-10-09T00:32:41;13.98;;;5.80;;
72639;SDS011;60683;51.730;8.762;2023-10-09T00:35:10;11.63;;;5.57;;
72639;SDS011;60683;51.730;8.762;2023-10-09T00:37:51;14.52;;;5.65;;
72639;SDS011;60683;51.730;8.762;2023-10-09T00:40:29;13.27;;;6.00;;
72639;SDS011;60683;51.730;8.762;2023-10-09T00:42:58;9.93;;;4.45;;
72639;SDS011;60683;51.730;8.762;2023-10-09T00:45:28;12.15;;;5.22;;
72639;SDS011;60683;51.730;8.762;2023-10-09T00:47:59;11.25;;;5.13;;
72639;SDS011;60683;51.730;8.762;2023-10-09T00:50:29;16.35;;;5.78;;
72639;SDS011;60683;51.730;8.762;2023-10-09T00:53:01;10.70;;;4.47;;
72639;SDS011;60683;51.730;8.762;2023-10-09T00:55:31;19.33;;;6.47;;
72639;SDS011;60683;51.730;8.762;2023-10-09T00:58:03;12.38;;;5.03;;
72639;SDS011;60683;51.730;8.762;2023-10-09T01:00:37;12.00;;;4.68;;
72639;SDS011;60683;51.730;8.762;2023-10-09T01:03:14;11.52;;;4.93;;
72639;SDS011;60683;51.730;8.762;2023-10-09T01:05:52;13.98;;;5.47;;
72639;SDS011;60683;51.730;8.762;2023-10-09T01:08:23;14.93;;;5.43;;
72639;SDS011;60683;51.730;8.762;2023-10-09T01:10:55;12.18;;;4.95;;
72639;SDS011;60683;51.730;8.762;2023-10-09T01:13:23;14.32;;;5.55;;
72639;SDS011;60683;51.730;8.762;2023-10-09T01:16:05;10.45;;;5.25;;
72639;SDS011;60683;51.730;8.762;2023-10-09T01:18:39;14.00;;;5.07;;
72639;SDS011;60683;51.730;8.762;2023-10-09T01:21:06;13.00;;;5.03;;
72639;SDS011;60683;51.730;8.762;2023-10-09T01:23:34;13.20;;;5.22;;
72639;SDS011;60683;51.730;8.762;2023-10-09T01:26:24;12.20;;;4.90;;
72639;SDS011;60683;51.730;8.762;2023-10-09T01:28:50;11.57;;;5.10;;
72639;SDS011;60683;51.730;8.762;2023-10-09T01:31:23;18.50;;;6.20;;
72639;SDS011;60683;51.730;8.762;2023-10-09T01:33:51;11.32;;;4.68;;
72639;SDS011;60683;51.730;8.762;2023-10-09T01:36:19;15.00;;;5.35;;
72639;SDS011;60683;51.730;8.762;2023-10-09T01:38:58;14.02;;;5.05;;
72639;SDS011;60683;51.730;8.762;2023-10-09T01:41:26;18.70;;;6.00;;
72639;SDS011;60683;51.730;8.762;2023-10-09T01:43:53;17.95;;;6.25;;
72639;SDS011;60683;51.730;8.762;2023-10-09T01:46:26;14.68;;;5.35;;
72639;SDS011;60683;51.730;8.762;2023-10-09T01:48:53;20.73;;;7.72;;
72639;SDS011;60683;51.730;8.762;2023-10-09T01:51:20;20.30;;;7.22;;
72639;SDS011;60683;51.730;8.762;2023-10-09T01:53:47;15.40;;;6.60;;
72639;SDS011;60683;51.730;8.762;2023-10-09T01:56:21;16.17;;;6.82;;
72639;SDS011;60683;51.730;8.762;2023-10-09T01:58:48;16.48;;;7.00;;
72639;SDS011;60683;51.730;8.762;2023-10-09T02:01:16;15.25;;;7.22;;
72639;SDS011;60683;51.730;8.762;2023-10-09T02:03:42;15.93;;;6.07;;
72639;SDS011;60683;51.730;8.762;2023-10-09T02:06:10;15.45;;;6.40;;
72639;SDS011;60683;51.730;8.762;2023-10-09T02:08:55;14.05;;;6.03;;
72639;SDS011;60683;51.730;8.762;2023-10-09T02:11:23;13.98;;;5.93;;
72639;SDS011;60683;51.730;8.762;2023-10-09T02:14:06;12.63;;;6.40;;
72639;SDS011;60683;51.730;8.762;2023-10-09T02:16:45;15.13;;;6.22;;
72639;SDS011;60683;51.730;8.762;2023-10-09T02:19:28;13.38;;;5.90;;
72639;SDS011;60683;51.730;8.762;2023-10-09T02:22:00;14.77;;;6.65;;
72639;SDS011;60683;51.730;8.762;2023-10-09T02:24:37;12.45;;;6.22;;
72639;SDS011;60683;51.730;8.762;2023-10-09T02:27:24;12.45;;;6.65;;
72639;SDS011;60683;51.730;8.762;2023-10-09T02:30:12;15.80;;;7.07;;
72639;SDS011;60683;51.730;8.762;2023-10-09T02:32:45;15.68;;;6.20;;
72639;SDS011;60683;51.730;8.762;2023-10-09T02:35:18;16.10;;;6.20;;
72639;SDS011;60683;51.730;8.762;2023-10-09T02:38:02;12.50;;;6.25;;
72639;SDS011;60683;51.730;8.762;2023-10-09T02:40:33;17.80;;;7.38;;
72639;SDS011;60683;51.730;8.762;2023-10-09T02:43:08;18.42;;;7.97;;
72639;SDS011;60683;51.730;8.762;2023-10-09T02:45:43;15.85;;;6.97;;
72639;SDS011;60683;51.730;8.762;2023-10-09T02:48:16;17.23;;;7.00;;
72639;SDS011;60683;51.730;8.762;2023-10-09T02:50:45;19.00;;;7.45;;
72639;SDS011;60683;51.730;8.762;2023-10-09T02:53:13;16.38;;;7.13;;
72639;SDS011;60683;51.730;8.762;2023-10-09T02:55:45;19.92;;;8.63;;
72639;SDS011;60683;51.730;8.762;2023-10-09T02:58:30;18.10;;;7.22;;
72639;SDS011;60683;51.730;8.762;2023-10-09T03:00:58;16.92;;;7.65;;
72639;SDS011;60683;51.730;8.762;2023-10-09T03:03:25;17.88;;;8.23;;
72639;SDS011;60683;51.730;8.762;2023-10-09T03:05:53;21.92;;;8.38;;
72639;SDS011;60683;51.730;8.762;2023-10-09T03:08:20;23.75;;;9.32;;
72639;SDS011;60683;51.730;8.762;2023-10-09T03:10:47;20.23;;;8.45;;
72639;SDS011;60683;51.730;8.762;2023-10-09T03:13:14;18.95;;;9.07;;
72639;SDS011;60683;51.730;8.762;2023-10-09T03:15:47;19.08;;;8.43;;
72639;SDS011;60683;51.730;8.762;2023-10-09T03:18:17;18.52;;;8.23;;
72639;SDS011;60683;51.730;8.762;2023-10-09T03:20:44;17.42;;;8.27;;
72639;SDS011;60683;51.730;8.762;2023-10-09T03:23:13;20.92;;;8.20;;
72639;SDS011;60683;51.730;8.762;2023-10-09T03:25:40;16.48;;;7.85;;
72639;SDS011;60683;51.730;8.762;2023-10-09T03:28:11;17.88;;;8.55;;
72639;SDS011;60683;51.730;8.762;2023-10-09T03:30:38;18.00;;;8.32;;
72639;SDS011;60683;51.730;8.762;2023-10-09T03:33:07;15.52;;;7.97;;
72639;SDS011;60683;51.730;8.762;2023-10-09T03:35:34;19.23;;;8.30;;
72639;SDS011;60683;51.730;8.762;2023-10-09T03:38:02;15.85;;;7.80;;
72639;SDS011;60683;51.730;8.762;2023-10-09T03:40:37;18.08;;;7.60;;
72639;SDS011;60683;51.730;8.762;2023-10-09T03:43:08;20.50;;;8.38;;
72639;SDS011;60683;51.730;8.762;2023-10-09T03:45:37;16.42;;;8.45;;
72639;SDS011;60683;51.730;8.762;2023-10-09T03:48:12;22.08;;;8.88;;
72639;SDS011;60683;51.730;8.762;2023-10-09T03:50:46;22.33;;;8.25;;
72639;SDS011;60683;51.730;8.762;2023-10-09T03:53:13;18.35;;;8.27;;
72639;SDS011;60683;51.730;8.762;2023-10-09T03:55:40;15.85;;;7.25;;
72639;SDS011;60683;51.730;8.762;2023-10-09T03:58:07;22.73;;;8.93;;
72639;SDS011;60683;51.730;8.762;2023-10-09T04:00:37;22.88;;;9.43;;
72639;SDS011;60683;51.730;8.762;2023-10-09T04:03:12;20.55;;;7.72;;
72639;SDS011;60683;51.730;8.762;2023-10-09T04:05:39;16.83;;;8.10;;
72639;SDS011;60683;51.730;8.762;2023-10-09T04:08:08;20.02;;;9.55;;
72639;SDS011;60683;51.730;8.762;2023-10-09T04:10:41;19.83;;;9.05;;
72639;SDS011;60683;51.730;8.762;2023-10-09T04:13:18;16.83;;;8.15;;
72639;SDS011;60683;51.730;8.762;2023-10-09T04:15:49;20.05;;;9.88;;
72639;SDS011;60683;51.730;8.762;2023-10-09T04:18:20;20.88;;;9.25;;
72639;SDS011;60683;51.730;8.762;2023-10-09T04:20:54;24.50;;;9.82;;
72639;SDS011;60683;51.730;8.762;2023-10-09T04:23:39;21.52;;;8.68;;
72639;SDS011;60683;51.730;8.762;2023-10-09T04:26:24;22.48;;;10.02;;
72639;SDS011;60683;51.730;8.762;2023-10-09T04:28:51;19.90;;;10.20;;
72639;SDS011;60683;51.730;8.762;2023-10-09T04:31:19;19.20;;;9.52;;
72639;SDS011;60683;51.730;8.762;2023-10-09T04:33:49;20.75;;;9.82;;
72639;SDS011;60683;51.730;8.762;2023-10-09T04:36:44;20.33;;;9.40;;
72639;SDS011;60683;51.730;8.762;2023-10-09T04:39:15;20.25;;;9.77;;
72639;SDS011;60683;51.730;8.762;2023-10-09T04:41:51;26.77;;;10.38;;
72639;SDS011;60683;51.730;8.762;2023-10-09T04:44:19;21.10;;;9.98;;
72639;SDS011;60683;51.730;8.762;2023-10-09T04:46:49;20.08;;;10.20;;
72639;SDS011;60683;51.730;8.762;2023-10-09T04:49:32;17.17;;;8.45;;
72639;SDS011;60683;51.730;8.762;2023-10-09T04:52:15;22.63;;;9.98;;
72639;SDS011;60683;51.730;8.762;2023-10-09T04:54:45;20.90;;;9.55;;
72639;SDS011;60683;51.730;8.762;2023-10-09T04:57:26;14.45;;;8.20;;
72639;SDS011;60683;51.730;8.762;2023-10-09T04:59:55;23.92;;;9.65;;
72639;SDS011;60683;51.730;8.762;2023-10-09T05:02:24;23.40;;;9.73;;
72639;SDS011;60683;51.730;8.762;2023-10-09T05:05:03;18.40;;;8.85;;
72639;SDS011;60683;51.730;8.762;2023-10-09T05:08:01;20.70;;;8.52;;
72639;SDS011;60683;51.730;8.762;2023-10-09T05:10:44;15.48;;;7.95;;
72639;SDS011;60683;51.730;8.762;2023-10-09T05:13:31;19.02;;;7.90;;
72639;SDS011;60683;51.730;8.762;2023-10-09T05:16:09;21.98;;;8.38;;
72639;SDS011;60683;51.730;8.762;2023-10-09T05:18:41;17.70;;;8.43;;
72639;SDS011;60683;51.730;8.762;2023-10-09T05:21:08;16.02;;;7.18;;
72639;SDS011;60683;51.730;8.762;2023-10-09T05:23:49;15.10;;;6.05;;
72639;SDS011;60683;51.730;8.762;2023-10-09T05:26:36;16.75;;;7.43;;
72639;SDS011;60683;51.730;8.762;2023-10-09T05:29:16;13.70;;;6.38;;
72639;SDS011;60683;51.730;8.762;2023-10-09T05:31:50;17.38;;;6.88;;
72639;SDS011;60683;51.730;8.762;2023-10-09T05:34:23;14.25;;;7.78;;
72639;SDS011;60683;51.730;8.762;2023-10-09T05:36:52;13.77;;;6.90;;
72639;SDS011;60683;51.730;8.762;2023-10-09T05:39:36;12.40;;;6.28;;
72639;SDS011;60683;51.730;8.762;2023-10-09T05:42:06;12.48;;;6.15;;
72639;SDS011;60683;51.730;8.762;2023-10-09T05:44:42;14.98;;;7.72;;
72639;SDS011;60683;51.730;8.762;2023-10-09T05:47:27;14.60;;;6.75;;
72639;SDS011;60683;51.730;8.762;2023-10-09T05:49:57;15.27;;;7.72;;
72639;SDS011;60683;51.730;8.762;2023-10-09T05:52:50;15.98;;;7.70;;
72639;SDS011;60683;51.730;8.762;2023-10-09T05:55:31;14.90;;;7.90;;
72639;SDS011;60683;51.730;8.762;2023-10-09T05:58:30;18.15;;;9.07;;
72639;SDS011;60683;51.730;8.762;2023-10-09T06:01:28;17.00;;;8.85;;
72639;SDS011;60683;51.730;8.762;2023-10-09T06:04:13;17.08;;;8.70;;
72639;SDS011;60683;51.730;8.762;2023-10-09T06:06:42;20.83;;;9.27;;
72639;SDS011;60683;51.730;8.762;2023-10-09T06:09:13;22.40;;;9.57;;
72639;SDS011;60683;51.730;8.762;2023-10-09T06:12:15;19.05;;;9.10;;
72639;SDS011;60683;51.730;8.762;2023-10-09T06:15:08;16.80;;;7.65;;
72639;SDS011;60683;51.730;8.762;2023-10-09T06:18:16;19.77;;;8.48;;
72639;SDS011;60683;51.730;8.762;2023-10-09T06:20:51;18.05;;;9.45;;
72639;SDS011;60683;51.730;8.762;2023-10-09T06:23:44;21.63;;;9.05;;
72639;SDS011;60683;51.730;8.762;2023-10-09T06:26:36;18.25;;;8.52;;
72639;SDS011;60683;51.730;8.762;2023-10-09T06:29:03;19.17;;;8.77;;
72639;SDS011;60683;51.730;8.762;2023-10-09T06:31:56;17.70;;;8.35;;
72639;SDS011;60683;51.730;8.762;2023-10-09T06:34:42;16.92;;;8.93;;
72639;SDS011;60683;51.730;8.762;2023-10-09T06:37:11;17.92;;;8.18;;
72639;SDS011;60683;51.730;8.762;2023-10-09T06:40:00;16.88;;;8.93;;
72639;SDS011;60683;51.730;8.762;2023-10-09T06:42:50;16.50;;;8.02;;
72639;SDS011;60683;51.730;8.762;2023-10-09T06:45:20;18.75;;;8.45;;
72639;SDS011;60683;51.730;8.762;2023-10-09T06:47:54;16.13;;;8.30;;
72639;SDS011;60683;51.730;8.762;2023-10-09T06:50:21;15.95;;;7.93;;
72639;SDS011;60683;51.730;8.762;2023-10-09T06:52:52;14.93;;;6.63;;
72639;SDS011;60683;51.730;8.762;2023-10-09T06:55:39;8.80;;;4.65;;
72639;SDS011;60683;51.730;8.762;2023-10-09T06:58:17;14.73;;;7.55;;
72639;SDS011;60683;51.730;8.762;2023-10-09T07:00:48;13.82;;;6.45;;
72639;SDS011;60683;51.730;8.762;2023-10-09T07:03:40;11.18;;;5.55;;
72639;SDS011;60683;51.730;8.762;2023-10-09T07:06:17;12.02;;;6.30;;
72639;SDS011;60683;51.730;8.762;2023-10-09T07:08:50;13.25;;;6.47;;
72639;SDS011;60683;51.730;8.762;2023-10-09T07:11:41;13.63;;;6.45;;
72639;SDS011;60683;51.730;8.762;2023-10-09T07:14:30;14.50;;;7.10;;
72639;SDS011;60683;51.730;8.762;2023-10-09T07:17:15;14.98;;;6.97;;
72639;SDS011;60683;51.730;8.762;2023-10-09T07:19:47;14.68;;;6.97;;
72639;SDS011;60683;51.730;8.762;2023-10-09T07:22:39;13.50;;;5.53;;
72639;SDS011;60683;51.730;8.762;2023-10-09T07:25:18;15.23;;;6.25;;
72639;SDS011;60683;51.730;8.762;2023-10-09T07:28:04;17.02;;;6.47;;
72639;SDS011;60683;51.730;8.762;2023-10-09T07:30:45;14.10;;;7.40;;
72639;SDS011;60683;51.730;8.762;2023-10-09T07:33:12;13.88;;;6.60;;
72639;SDS011;60683;51.730;8.762;2023-10-09T07:35:56;12.70;;;6.22;;
72639;SDS011;60683;51.730;8.762;2023-10-09T07:38:24;16.52;;;7.13;;
72639;SDS011;60683;51.730;8.762;2023-10-09T07:40:55;14.80;;;6.85;;
72639;SDS011;60683;51.730;8.762;2023-10-09T07:43:26;14.07;;;6.32;;
72639;SDS011;60683;51.730;8.762;2023-10-09T07:46:03;11.63;;;5.95;;
72639;SDS011;60683;51.730;8.762;2023-10-09T07:48:49;15.30;;;6.38;;
72639;SDS011;60683;51.730;8.762;2023-10-09T07:51:18;12.25;;;6.55;;
72639;SDS011;60683;51.730;8.762;2023-10-09T07:53:49;14.18;;;6.90;;
72639;SDS011;60683;51.730;8.762;2023-10-09T07:56:23;12.00;;;5.13;;
72639;SDS011;60683;51.730;8.762;2023-10-09T07:58:50;12.27;;;5.55;;
72639;SDS011;60683;51.730;8.762;2023-10-09T08:01:19;13.85;;;6.70;;
72639;SDS011;60683;51.730;8.762;2023-10-09T08:04:01;12.35;;;5.53;;
72639;SDS011;60683;51.730;8.762;2023-10-09T08:06:31;16.02;;;6.88;;
72639;SDS011;60683;51.730;8.762;2023-10-09T08:09:07;12.00;;;5.57;;
72639;SDS011;60683;51.730;8.762;2023-10-09T08:11:54;12.95;;;6.07;;
72639;SDS011;60683;51.730;8.762;2023-10-09T08:14:40;11.85;;;5.95;;
72639;SDS011;60683;51.730;8.762;2023-10-09T08:17:15;15.40;;;7.18;;
72639;SDS011;60683;51.730;8.762;2023-10-09T08:19:42;13.35;;;7.60;;
72639;SDS011;60683;51.730;8.762;2023-10-09T08:22:26;14.95;;;6.22;;
72639;SDS011;60683;51.730;8.762;2023-10-09T08:25:09;14.20;;;6.00;;
72639;SDS011;60683;51.730;8.762;2023-10-09T08:27:52;14.95;;;6.63;;
72639;SDS011;60683;51.730;8.762;2023-10-09T08:30:23;15.60;;;6.85;;
72639;SDS011;60683;51.730;8.762;2023-10-09T08:33:17;15.18;;;6.53;;
72639;SDS011;60683;51.730;8.762;2023-10-09T08:36:01;13.80;;;5.97;;
72639;SDS011;60683;51.730;8.762;2023-10-09T08:38:30;14.15;;;5.93;;
72639;SDS011;60683;51.730;8.762;2023-10-09T08:41:06;10.43;;;6.38;;
72639;SDS011;60683;51.730;8.762;2023-10-09T08:43:43;15.65;;;5.40;;
72639;SDS011;60683;51.730;8.762;2023-10-09T08:46:17;12.07;;;6.45;;
72639;SDS011;60683;51.730;8.762;2023-10-09T08:48:47;11.45;;;5.47;;
72639;SDS011;60683;51.730;8.762;2023-10-09T08:51:16;13.02;;;6.53;;
72639;SDS011;60683;51.730;8.762;2023-10-09T08:53:45;12.55;;;5.43;;
72639;SDS011;60683;51.730;8.762;2023-10-09T08:56:13;11.57;;;5.68;;
72639;SDS011;60683;51.730;8.762;2023-10-09T08:58:48;12.65;;;6.22;;
72639;SDS011;60683;51.730;8.762;2023-10-09T09:01:16;12.95;;;5.80;;
72639;SDS011;60683;51.730;8.762;2023-10-09T09:03:48;14.93;;;6.47;;
72639;SDS011;60683;51.730;8.762;2023-10-09T09:06:17;14.43;;;6.03;;
72639;SDS011;60683;51.730;8.762;2023-10-09T09:08:45;11.40;;;5.68;;
72639;SDS011;60683;51.730;8.762;2023-10-09T09:11:13;12.35;;;5.78;;
72639;SDS011;60683;51.730;8.762;2023-10-09T09:13:43;9.60;;;4.85;;
72639;SDS011;60683;51.730;8.762;2023-10-09T09:16:15;10.57;;;6.13;;
72639;SDS011;60683;51.730;8.762;2023-10-09T09:18:52;14.65;;;6.57;;
72639;SDS011;60683;51.730;8.762;2023-10-09T09:21:31;12.77;;;6.25;;
72639;SDS011;60683;51.730;8.762;2023-10-09T09:24:04;13.32;;;6.43;;
72639;SDS011;60683;51.730;8.762;2023-10-09T09:26:41;11.88;;;5.95;;
72639;SDS011;60683;51.730;8.762;2023-10-09T09:29:11;14.27;;;6.28;;
72639;SDS011;60683;51.730;8.762;2023-10-09T09:31:52;12.27;;;5.68;;
72639;SDS011;60683;51.730;8.762;2023-10-09T09:34:22;14.77;;;6.90;;
72639;SDS011;60683;51.730;8.762;2023-10-09T09:36:55;14.18;;;6.88;;
72639;SDS011;60683;51.730;8.762;2023-10-09T09:39:24;13.30;;;6.47;;
72639;SDS011;60683;51.730;8.762;2023-10-09T09:41:55;13.23;;;7.10;;
72639;SDS011;60683;51.730;8.762;2023-10-09T09:44:33;15.18;;;6.93;;
72639;SDS011;60683;51.730;8.762;2023-10-09T09:47:09;12.57;;;6.97;;
72639;SDS011;60683;51.730;8.762;2023-10-09T09:49:41;12.73;;;6.30;;
72639;SDS011;60683;51.730;8.762;2023-10-09T09:52:09;14.52;;;6.50;;
72639;SDS011;60683;51.730;8.762;2023-10-09T09:54:37;15.07;;;7.60;;
72639;SDS011;60683;51.730;8.762;2023-10-09T09:57:04;13.35;;;6.28;;
72639;SDS011;60683;51.730;8.762;2023-10-09T09:59:37;15.43;;;6.93;;
72639;SDS011;60683;51.730;8.762;2023-10-09T10:02:18;10.65;;;5.40;;
72639;SDS011;60683;51.730;8.762;2023-10-09T10:04:52;13.10;;;6.13;;
72639;SDS011;60683;51.730;8.762;2023-10-09T10:07:22;12.98;;;6.07;;
72639;SDS011;60683;51.730;8.762;2023-10-09T10:09:51;12.70;;;6.63;;
72639;SDS011;60683;51.730;8.762;2023-10-09T10:18:31;14.93;;;7.28;;
72639;SDS011;60683;51.730;8.762;2023-10-09T10:21:11;13.30;;;6.93;;
72639;SDS011;60683;51.730;8.762;2023-10-09T10:23:41;12.77;;;6.63;;
72639;SDS011;60683;51.730;8.762;2023-10-09T10:26:16;12.65;;;6.60;;
72639;SDS011;60683;51.730;8.762;2023-10-09T10:29:01;11.75;;;6.20;;
72639;SDS011;60683;51.730;8.762;2023-10-09T10:31:51;14.00;;;7.05;;
72639;SDS011;60683;51.730;8.762;2023-10-09T10:34:19;13.38;;;5.82;;
72639;SDS011;60683;51.730;8.762;2023-10-09T10:36:50;12.93;;;6.75;;
72639;SDS011;60683;51.730;8.762;2023-10-09T10:39:24;17.83;;;7.28;;
72639;SDS011;60683;51.730;8.762;2023-10-09T10:42:08;11.52;;;6.38;;
72639;SDS011;60683;51.730;8.762;2023-10-09T10:44:56;15.02;;;6.97;;
72639;SDS011;60683;51.730;8.762;2023-10-09T10:47:25;13.35;;;6.22;;
72639;SDS011;60683;51.730;8.762;2023-10-09T10:49:58;14.30;;;6.85;;
72639;SDS011;60683;51.730;8.762;2023-10-09T10:52:38;13.45;;;6.43;;
72639;SDS011;60683;51.730;8.762;2023-10-09T10:55:08;11.52;;;6.38;;
72639;SDS011;60683;51.730;8.762;2023-10-09T10:58:15;11.48;;;6.75;;
72639;SDS011;60683;51.730;8.762;2023-10-09T11:00:52;15.95;;;6.63;;
72639;SDS011;60683;51.730;8.762;2023-10-09T11:03:37;12.20;;;6.68;;
72639;SDS011;60683;51.730;8.762;2023-10-09T11:06:27;15.88;;;6.40;;
72639;SDS011;60683;51.730;8.762;2023-10-09T11:09:04;14.52;;;5.90;;
72639;SDS011;60683;51.730;8.762;2023-10-09T11:11:46;13.57;;;6.88;;
72639;SDS011;60683;51.730;8.762;2023-10-09T11:14:15;14.23;;;7.03;;
72639;SDS011;60683;51.730;8.762;2023-10-09T11:16:48;13.00;;;6.82;;
72639;SDS011;60683;51.730;8.762;2023-10-09T11:19:19;13.57;;;7.47;;
72639;SDS011;60683;51.730;8.762;2023-10-09T11:21:57;12.95;;;6.68;;
72639;SDS011;60683;51.730;8.762;2023-10-09T11:24:47;12.77;;;6.78;;
72639;SDS011;60683;51.730;8.762;2023-10-09T11:27:27;14.43;;;6.80;;
72639;SDS011;60683;51.730;8.762;2023-10-09T11:29:58;14.50;;;6.82;;
72639;SDS011;60683;51.730;8.762;2023-10-09T11:32:35;11.70;;;6.15;;
72639;SDS011;60683;51.730;8.762;2023-10-09T11:35:09;11.75;;;6.28;;
72639;SDS011;60683;51.730;8.762;2023-10-09T11:37:40;15.93;;;6.88;;
72639;SDS011;60683;51.730;8.762;2023-10-09T11:42:59;16.33;;;6.82;;
72639;SDS011;60683;51.730;8.762;2023-10-09T11:45:29;14.25;;;7.38;;
72639;SDS011;60683;51.730;8.762;2023-10-09T11:48:15;12.35;;;6.28;;
72639;SDS011;60683;51.730;8.762;2023-10-09T11:50:47;17.30;;;7.75;;
72639;SDS011;60683;51.730;8.762;2023-10-09T11:53:19;16.33;;;7.47;;
72639;SDS011;60683;51.730;8.762;2023-10-09T11:56:01;13.93;;;7.65;;
72639;SDS011;60683;51.730;8.762;2023-10-09T11:58:29;15.65;;;7.65;;
72639;SDS011;60683;51.730;8.762;2023-10-09T12:00:56;15.10;;;7.38;;
72639;SDS011;60683;51.730;8.762;2023-10-09T12:03:29;14.98;;;7.45;;
72639;SDS011;60683;51.730;8.762;2023-10-09T12:05:57;16.55;;;8.30;;
72639;SDS011;60683;51.730;8.762;2023-10-09T12:08:29;17.77;;;8.13;;
72639;SDS011;60683;51.730;8.762;2023-10-09T12:10:57;18.35;;;7.82;;
72639;SDS011;60683;51.730;8.762;2023-10-09T12:13:34;16.70;;;7.65;;
72639;SDS011;60683;51.730;8.762;2023-10-09T12:16:04;16.65;;;8.35;;
72639;SDS011;60683;51.730;8.762;2023-10-09T12:18:34;14.88;;;8.13;;
72639;SDS011;60683;51.730;8.762;2023-10-09T12:21:02;17.42;;;8.00;;
72639;SDS011;60683;51.730;8.762;2023-10-09T12:23:29;18.15;;;9.20;;
72639;SDS011;60683;51.730;8.762;2023-10-09T12:26:01;13.20;;;7.25;;
72639;SDS011;60683;51.730;8.762;2023-10-09T12:28:28;17.02;;;8.77;;
72639;SDS011;60683;51.730;8.762;2023-10-09T12:30:59;17.52;;;8.65;;
72639;SDS011;60683;51.730;8.762;2023-10-09T12:33:28;18.33;;;8.05;;
72639;SDS011;60683;51.730;8.762;2023-10-09T12:35:55;14.65;;;8.02;;
72639;SDS011;60683;51.730;8.762;2023-10-09T12:38:25;20.30;;;10.13;;
72639;SDS011;60683;51.730;8.762;2023-10-09T12:41:00;15.77;;;8.27;;
72639;SDS011;60683;51.730;8.762;2023-10-09T12:43:33;16.48;;;9.02;;
72639;SDS011;60683;51.730;8.762;2023-10-09T12:48:34;15.95;;;8.45;;
72639;SDS011;60683;51.730;8.762;2023-10-09T12:51:03;14.20;;;8.20;;
72639;SDS011;60683;51.730;8.762;2023-10-09T12:53:31;16.65;;;9.95;;
72639;SDS011;60683;51.730;8.762;2023-10-09T12:55:59;15.68;;;7.78;;
72639;SDS011;60683;51.730;8.762;2023-10-09T12:58:26;18.27;;;10.52;;
72639;SDS011;60683;51.730;8.762;2023-10-09T13:00:53;18.92;;;10.02;;
72639;SDS011;60683;51.730;8.762;2023-10-09T13:03:21;20.20;;;10.35;;
72639;SDS011;60683;51.730;8.762;2023-10-09T13:05:54;16.13;;;9.52;;
72639;SDS011;60683;51.730;8.762;2023-10-09T13:08:22;21.33;;;10.98;;
72639;SDS011;60683;51.730;8.762;2023-10-09T13:10:57;18.70;;;10.32;;
72639;SDS011;60683;51.730;8.762;2023-10-09T13:13:33;15.25;;;8.93;;
72639;SDS011;60683;51.730;8.762;2023-10-09T13:16:17;21.38;;;9.75;;
72639;SDS011;60683;51.730;8.762;2023-10-09T13:18:50;19.52;;;8.93;;
72639;SDS011;60683;51.730;8.762;2023-10-09T13:21:17;16.70;;;9.27;;
72639;SDS011;60683;51.730;8.762;2023-10-09T13:23:45;14.18;;;8.88;;
72639;SDS011;60683;51.730;8.762;2023-10-09T13:26:13;22.13;;;8.98;;
72639;SDS011;60683;51.730;8.762;2023-10-09T13:28:49;18.75;;;10.73;;
72639;SDS011;60683;51.730;8.762;2023-10-09T13:31:18;18.65;;;7.95;;
72639;SDS011;60683;51.730;8.762;2023-10-09T13:33:46;15.52;;;8.85;;
72639;SDS011;60683;51.730;8.762;2023-10-09T13:36:15;18.55;;;7.35;;
72639;SDS011;60683;51.730;8.762;2023-10-09T13:38:52;13.63;;;7.05;;
72639;SDS011;60683;51.730;8.762;2023-10-09T13:41:20;18.80;;;9.05;;
72639;SDS011;60683;51.730;8.762;2023-10-09T13:43:47;14.90;;;7.63;;
72639;SDS011;60683;51.730;8.762;2023-10-09T13:46:17;17.23;;;7.95;;
72639;SDS011;60683;51.730;8.762;2023-10-09T13:48:45;16.05;;;7.55;;
72639;SDS011;60683;51.730;8.762;2023-10-09T13:51:16;14.80;;;8.38;;
72639;SDS011;60683;51.730;8.762;2023-10-09T13:53:44;14.65;;;8.00;;
72639;SDS011;60683;51.730;8.762;2023-10-09T13:56:12;17.70;;;8.63;;
72639;SDS011;60683;51.730;8.762;2023-10-09T13:58:44;18.67;;;9.07;;
72639;SDS011;60683;51.730;8.762;2023-10-09T14:01:12;14.85;;;7.93;;
72639;SDS011;60683;51.730;8.762;2023-10-09T14:03:46;18.30;;;8.77;;
72639;SDS011;60683;51.730;8.762;2023-10-09T14:06:17;18.98;;;8.43;;
72639;SDS011;60683;51.730;8.762;2023-10-09T14:08:56;19.50;;;8.95;;
72639;SDS011;60683;51.730;8.762;2023-10-09T14:11:23;20.42;;;9.65;;
72639;SDS011;60683;51.730;8.762;2023-10-09T14:13:51;16.92;;;7.68;;
72639;SDS011;60683;51.730;8.762;2023-10-09T14:16:18;23.58;;;9.20;;
72639;SDS011;60683;51.730;8.762;2023-10-09T14:18:53;17.88;;;8.27;;
72639;SDS011;60683;51.730;8.762;2023-10-09T14:21:26;18.10;;;9.23;;
72639;SDS011;60683;51.730;8.762;2023-10-09T14:26:26;15.40;;;8.30;;
72639;SDS011;60683;51.730;8.762;2023-10-09T14:28:54;16.73;;;8.48;;
72639;SDS011;60683;51.730;8.762;2023-10-09T14:31:23;18.67;;;8.75;;
72639;SDS011;60683;51.730;8.762;2023-10-09T14:33:53;17.25;;;8.27;;
72639;SDS011;60683;51.730;8.762;2023-10-09T14:36:23;13.65;;;8.60;;
72639;SDS011;60683;51.730;8.762;2023-10-09T14:38:52;17.88;;;8.32;;
72639;SDS011;60683;51.730;8.762;2023-10-09T14:41:20;14.25;;;7.93;;
72639;SDS011;60683;51.730;8.762;2023-10-09T14:43:49;17.15;;;8.20;;
72639;SDS011;60683;51.730;8.762;2023-10-09T14:46:18;16.60;;;8.00;;
72639;SDS011;60683;51.730;8.762;2023-10-09T14:48:50;17.92;;;8.93;;
72639;SDS011;60683;51.730;8.762;2023-10-09T14:51:20;18.85;;;8.38;;
72639;SDS011;60683;51.730;8.762;2023-10-09T14:53:56;16.67;;;7.60;;
72639;SDS011;60683;51.730;8.762;2023-10-09T14:56:24;15.77;;;7.53;;
72639;SDS011;60683;51.730;8.762;2023-10-09T14:58:55;16.15;;;6.70;;
72639;SDS011;60683;51.730;8.762;2023-10-09T15:01:24;10.52;;;6.70;;
72639;SDS011;60683;51.730;8.762;2023-10-09T15:03:54;16.02;;;8.07;;
72639;SDS011;60683;51.730;8.762;2023-10-09T15:06:23;17.85;;;9.13;;
72639;SDS011;60683;51.730;8.762;2023-10-09T15:08:53;17.52;;;7.60;;
72639;SDS011;60683;51.730;8.762;2023-10-09T15:11:23;14.98;;;7.90;;
72639;SDS011;60683;51.730;8.762;2023-10-09T15:13:51;15.63;;;6.93;;
72639;SDS011;60683;51.730;8.762;2023-10-09T15:16:19;15.00;;;8.25;;
72639;SDS011;60683;51.730;8.762;2023-10-09T15:18:47;13.98;;;8.05;;
72639;SDS011;60683;51.730;8.762;2023-10-09T15:21:18;15.43;;;7.85;;
72639;SDS011;60683;51.730;8.762;2023-10-09T15:23:48;15.68;;;7.43;;
72639;SDS011;60683;51.730;8.762;2023-10-09T15:26:16;16.30;;;7.70;;
72639;SDS011;60683;51.730;8.762;2023-10-09T15:28:45;15.85;;;8.02;;